sensor_id;sensor_type;location;lat;lon;timestamp;P1;durP1;ratioP1;P2;durP2;ratioP2
51525;SDS011;37611;51.794;21.590;2024-03-23T00:56:04;23.00;;;18.00;;
51525;SDS011;37611;51.794;21.590;2024-03-23T01:00:06;20.80;;;16.80;;
51525;SDS011;37611;51.794;21.590;2024-03-23T01:04:11;24.40;;;17.10;;
51525;SDS011;37611;51.794;21.590;2024-03-23T01:08:13;21.80;;;17.30;;
51525;SDS011;37611;51.794;21.590;2024-03-23T01:12:15;21.70;;;17.20;;
51525;SDS011;37611;51.794;21.590;2024-03-23T01:16:16;20.40;;;17.00;;
51525;SDS011;37611;51.794;21.590;2024-03-23T01:20:18;23.10;;;17.30;;
51525;SDS011;37611;51.794;21.590;2024-03-23T01:24:19;23.00;;;18.30;;
51525;SDS011;37611;51.794;21.590;2024-03-23T01:28:21;23.80;;;18.50;;
51525;SDS011;37611;51.794;21.590;2024-03-23T01:32:23;22.80;;;18.00;;
51525;SDS011;37611;51.794;21.590;2024-03-23T01:36:25;22.50;;;18.50;;
51525;SDS011;37611;51.794;21.590;2024-03-23T01:40:26;23.50;;;17.50;;
51525;SDS011;37611;51.794;21.590;2024-03-23T01:44:32;23.80;;;17.80;;
51525;SDS011;37611;51.794;21.590;2024-03-23T01:48:34;24.10;;;18.50;;
51525;SDS011;37611;51.794;21.590;2024-03-23T01:52:36;22.10;;;18.40;;
51525;SDS011;37611;51.794;21.590;2024-03-23T01:56:38;20.80;;;17.40;;
51525;SDS011;37611;51.794;21.590;2024-03-23T02:00:39;25.10;;;18.30;;
51525;SDS011;37611;51.794;21.590;2024-03-23T02:04:42;23.60;;;18.80;;
51525;SDS011;37611;51.794;21.590;2024-03-23T02:08:43;24.20;;;18.50;;
51525;SDS011;37611;51.794;21.590;2024-03-23T02:12:45;23.80;;;19.70;;
51525;SDS011;37611;51.794;21.590;2024-03-23T02:16:48;26.60;;;19.60;;
51525;SDS011;37611;51.794;21.590;2024-03-23T02:20:49;24.80;;;19.20;;
51525;SDS011;37611;51.794;21.590;2024-03-23T02:24:51;24.90;;;18.90;;
51525;SDS011;37611;51.794;21.590;2024-03-23T02:28:53;25.20;;;18.40;;
51525;SDS011;37611;51.794;21.590;2024-03-23T02:32:55;24.20;;;19.30;;
51525;SDS011;37611;51.794;21.590;2024-03-23T02:36:57;27.10;;;19.60;;
51525;SDS011;37611;51.794;21.590;2024-03-23T02:41:02;23.70;;;19.10;;
51525;SDS011;37611;51.794;21.590;2024-03-23T02:45:05;27.50;;;20.40;;
51525;SDS011;37611;51.794;21.590;2024-03-23T02:49:07;25.20;;;19.50;;
51525;SDS011;37611;51.794;21.590;2024-03-23T02:53:09;28.10;;;21.60;;
51525;SDS011;37611;51.794;21.590;2024-03-23T02:57:11;26.10;;;21.00;;
51525;SDS011;37611;51.794;21.590;2024-03-23T03:01:13;25.20;;;20.30;;
51525;SDS011;37611;51.794;21.590;2024-03-23T03:05:15;26.70;;;21.40;;
51525;SDS011;37611;51.794;21.590;2024-03-23T03:09:16;27.80;;;21.10;;
51525;SDS011;37611;51.794;21.590;2024-03-23T03:13:18;28.00;;;21.90;;
51525;SDS011;37611;51.794;21.590;2024-03-23T03:17:20;30.20;;;22.10;;
51525;SDS011;37611;51.794;21.590;2024-03-23T03:21:22;30.70;;;21.30;;
51525;SDS011;37611;51.794;21.590;2024-03-23T03:25:24;30.40;;;23.20;;
51525;SDS011;37611;51.794;21.590;2024-03-23T03:29:25;26.80;;;21.40;;
51525;SDS011;37611;51.794;21.590;2024-03-23T03:33:27;28.20;;;22.00;;
51525;SDS011;37611;51.794;21.590;2024-03-23T03:37:29;29.60;;;21.80;;
51525;SDS011;37611;51.794;21.590;2024-03-23T03:41:31;29.30;;;22.90;;
51525;SDS011;37611;51.794;21.590;2024-03-23T03:45:33;29.30;;;23.40;;
51525;SDS011;37611;51.794;21.590;2024-03-23T03:49:35;33.20;;;24.20;;
51525;SDS011;37611;51.794;21.590;2024-03-23T03:53:37;32.90;;;24.90;;
51525;SDS011;37611;51.794;21.590;2024-03-23T03:57:38;34.30;;;27.40;;
51525;SDS011;37611;51.794;21.590;2024-03-23T04:01:40;41.40;;;30.50;;
51525;SDS011;37611;51.794;21.590;2024-03-23T04:05:42;31.20;;;25.40;;
51525;SDS011;37611;51.794;21.590;2024-03-23T04:09:44;31.00;;;22.90;;
51525;SDS011;37611;51.794;21.590;2024-03-23T04:13:45;31.60;;;24.00;;
51525;SDS011;37611;51.794;21.590;2024-03-23T04:17:47;31.10;;;23.90;;
51525;SDS011;37611;51.794;21.590;2024-03-23T04:21:49;30.30;;;23.60;;
51525;SDS011;37611;51.794;21.590;2024-03-23T04:25:50;34.70;;;24.60;;
51525;SDS011;37611;51.794;21.590;2024-03-23T04:29:54;31.20;;;22.60;;
51525;SDS011;37611;51.794;21.590;2024-03-23T04:33:56;28.20;;;21.00;;
51525;SDS011;37611;51.794;21.590;2024-03-23T04:37:58;27.10;;;21.30;;
51525;SDS011;37611;51.794;21.590;2024-03-23T04:42:03;29.40;;;22.20;;
51525;SDS011;37611;51.794;21.590;2024-03-23T04:46:05;27.10;;;20.30;;
51525;SDS011;37611;51.794;21.590;2024-03-23T04:50:07;29.10;;;21.80;;
51525;SDS011;37611;51.794;21.590;2024-03-23T04:54:09;26.00;;;20.50;;
51525;SDS011;37611;51.794;21.590;2024-03-23T04:58:11;28.50;;;21.20;;
51525;SDS011;37611;51.794;21.590;2024-03-23T05:02:13;28.00;;;21.70;;
51525;SDS011;37611;51.794;21.590;2024-03-23T05:06:14;25.30;;;19.80;;
51525;SDS011;37611;51.794;21.590;2024-03-23T05:10:16;26.30;;;21.40;;
51525;SDS011;37611;51.794;21.590;2024-03-23T05:14:18;25.90;;;21.80;;
51525;SDS011;37611;51.794;21.590;2024-03-23T05:18:20;26.80;;;21.00;;
51525;SDS011;37611;51.794;21.590;2024-03-23T05:22:22;25.00;;;19.30;;
51525;SDS011;37611;51.794;21.590;2024-03-23T05:26:24;23.90;;;18.40;;
51525;SDS011;37611;51.794;21.590;2024-03-23T05:30:26;25.10;;;20.10;;
51525;SDS011;37611;51.794;21.590;2024-03-23T05:34:28;25.30;;;19.50;;
51525;SDS011;37611;51.794;21.590;2024-03-23T05:38:30;27.70;;;20.40;;
51525;SDS011;37611;51.794;21.590;2024-03-23T05:42:32;24.80;;;18.50;;
51525;SDS011;37611;51.794;21.590;2024-03-23T05:46:34;26.60;;;21.20;;
51525;SDS011;37611;51.794;21.590;2024-03-23T05:50:35;27.70;;;20.30;;
51525;SDS011;37611;51.794;21.590;2024-03-23T05:54:37;27.10;;;20.70;;
51525;SDS011;37611;51.794;21.590;2024-03-23T05:58:39;26.20;;;19.90;;
51525;SDS011;37611;51.794;21.590;2024-03-23T06:02:41;27.80;;;20.70;;
51525;SDS011;37611;51.794;21.590;2024-03-23T06:06:46;29.30;;;20.60;;
51525;SDS011;37611;51.794;21.590;2024-03-23T06:10:48;26.60;;;19.90;;
51525;SDS011;37611;51.794;21.590;2024-03-23T06:14:51;26.50;;;21.00;;
51525;SDS011;37611;51.794;21.590;2024-03-23T06:18:53;29.40;;;21.20;;
51525;SDS011;37611;51.794;21.590;2024-03-23T06:23:00;28.90;;;21.10;;
51525;SDS011;37611;51.794;21.590;2024-03-23T06:27:03;26.60;;;19.90;;
51525;SDS011;37611;51.794;21.590;2024-03-23T06:31:08;30.80;;;21.40;;
51525;SDS011;37611;51.794;21.590;2024-03-23T06:35:11;36.00;;;25.90;;
51525;SDS011;37611;51.794;21.590;2024-03-23T06:39:12;42.00;;;30.10;;
51525;SDS011;37611;51.794;21.590;2024-03-23T06:43:16;35.20;;;24.50;;
51525;SDS011;37611;51.794;21.590;2024-03-23T06:47:18;35.50;;;26.90;;
51525;SDS011;37611;51.794;21.590;2024-03-23T06:51:20;32.20;;;23.80;;
51525;SDS011;37611;51.794;21.590;2024-03-23T06:55:21;26.40;;;19.10;;
51525;SDS011;37611;51.794;21.590;2024-03-23T06:59:25;24.10;;;18.90;;
51525;SDS011;37611;51.794;21.590;2024-03-23T07:03:27;28.80;;;21.10;;
51525;SDS011;37611;51.794;21.590;2024-03-23T07:07:29;28.20;;;22.60;;
51525;SDS011;37611;51.794;21.590;2024-03-23T07:11:31;24.50;;;18.80;;
51525;SDS011;37611;51.794;21.590;2024-03-23T07:15:33;27.40;;;20.00;;
51525;SDS011;37611;51.794;21.590;2024-03-23T07:19:35;25.90;;;23.10;;
51525;SDS011;37611;51.794;21.590;2024-03-23T07:23:37;21.40;;;17.00;;
51525;SDS011;37611;51.794;21.590;2024-03-23T07:27:39;22.30;;;17.30;;
51525;SDS011;37611;51.794;21.590;2024-03-23T07:31:40;24.90;;;17.40;;
51525;SDS011;37611;51.794;21.590;2024-03-23T07:35:42;24.60;;;18.20;;
51525;SDS011;37611;51.794;21.590;2024-03-23T07:39:45;25.10;;;18.50;;
51525;SDS011;37611;51.794;21.590;2024-03-23T07:43:47;29.60;;;21.80;;
51525;SDS011;37611;51.794;21.590;2024-03-23T07:47:49;28.90;;;19.70;;
51525;SDS011;37611;51.794;21.590;2024-03-23T07:51:51;25.10;;;18.50;;
51525;SDS011;37611;51.794;21.590;2024-03-23T07:56:00;24.90;;;18.90;;
51525;SDS011;37611;51.794;21.590;2024-03-23T08:00:04;29.90;;;20.80;;
51525;SDS011;37611;51.794;21.590;2024-03-23T08:04:07;25.60;;;19.50;;
51525;SDS011;37611;51.794;21.590;2024-03-23T08:08:09;19.90;;;16.60;;
51525;SDS011;37611;51.794;21.590;2024-03-23T08:12:12;19.00;;;15.40;;
51525;SDS011;37611;51.794;21.590;2024-03-23T08:16:13;22.50;;;19.50;;
51525;SDS011;37611;51.794;21.590;2024-03-23T08:20:15;21.90;;;19.50;;
51525;SDS011;37611;51.794;21.590;2024-03-23T08:24:17;22.30;;;15.30;;
51525;SDS011;37611;51.794;21.590;2024-03-23T08:28:21;23.30;;;20.60;;
51525;SDS011;37611;51.794;21.590;2024-03-23T08:32:22;19.60;;;14.20;;
51525;SDS011;37611;51.794;21.590;2024-03-23T08:36:24;18.40;;;15.00;;
51525;SDS011;37611;51.794;21.590;2024-03-23T08:40:26;17.60;;;13.90;;
51525;SDS011;37611;51.794;21.590;2024-03-23T08:44:27;18.70;;;15.10;;
51525;SDS011;37611;51.794;21.590;2024-03-23T08:48:29;18.60;;;15.90;;
51525;SDS011;37611;51.794;21.590;2024-03-23T08:52:31;21.60;;;16.10;;
51525;SDS011;37611;51.794;21.590;2024-03-23T08:56:32;22.10;;;16.80;;
51525;SDS011;37611;51.794;21.590;2024-03-23T09:00:34;18.30;;;14.30;;
51525;SDS011;37611;51.794;21.590;2024-03-23T09:04:36;29.00;;;19.70;;
51525;SDS011;37611;51.794;21.590;2024-03-23T09:08:37;26.40;;;17.90;;
51525;SDS011;37611;51.794;21.590;2024-03-23T09:12:40;23.40;;;17.00;;
51525;SDS011;37611;51.794;21.590;2024-03-23T09:16:42;21.60;;;17.90;;
51525;SDS011;37611;51.794;21.590;2024-03-23T09:20:43;21.60;;;18.40;;
51525;SDS011;37611;51.794;21.590;2024-03-23T09:24:45;22.90;;;18.10;;
51525;SDS011;37611;51.794;21.590;2024-03-23T09:28:48;26.20;;;21.60;;
51525;SDS011;37611;51.794;21.590;2024-03-23T09:32:50;37.30;;;27.90;;
51525;SDS011;37611;51.794;21.590;2024-03-23T09:36:52;37.10;;;29.60;;
51525;SDS011;37611;51.794;21.590;2024-03-23T09:40:54;25.10;;;21.70;;
51525;SDS011;37611;51.794;21.590;2024-03-23T09:44:57;21.10;;;16.90;;
51525;SDS011;37611;51.794;21.590;2024-03-23T09:48:59;24.20;;;17.10;;
51525;SDS011;37611;51.794;21.590;2024-03-23T09:53:01;28.00;;;23.90;;
51525;SDS011;37611;51.794;21.590;2024-03-23T09:57:03;27.10;;;20.70;;
51525;SDS011;37611;51.794;21.590;2024-03-23T10:01:05;22.50;;;19.40;;
51525;SDS011;37611;51.794;21.590;2024-03-23T10:05:25;21.40;;;17.00;;
51525;SDS011;37611;51.794;21.590;2024-03-23T10:09:28;21.40;;;18.20;;
51525;SDS011;37611;51.794;21.590;2024-03-23T10:13:30;19.40;;;16.00;;
51525;SDS011;37611;51.794;21.590;2024-03-23T10:17:32;20.30;;;15.30;;
51525;SDS011;37611;51.794;21.590;2024-03-23T10:21:35;22.50;;;19.60;;
51525;SDS011;37611;51.794;21.590;2024-03-23T10:25:36;24.20;;;20.90;;
51525;SDS011;37611;51.794;21.590;2024-03-23T10:29:38;24.00;;;19.00;;
51525;SDS011;37611;51.794;21.590;2024-03-23T10:33:44;20.80;;;18.40;;
51525;SDS011;37611;51.794;21.590;2024-03-23T10:41:51;23.10;;;18.50;;
51525;SDS011;37611;51.794;21.590;2024-03-23T10:45:57;24.00;;;18.90;;
51525;SDS011;37611;51.794;21.590;2024-03-23T10:49:59;18.90;;;16.50;;
51525;SDS011;37611;51.794;21.590;2024-03-23T10:54:02;20.40;;;16.30;;
51525;SDS011;37611;51.794;21.590;2024-03-23T10:58:07;23.90;;;18.40;;
51525;SDS011;37611;51.794;21.590;2024-03-23T11:02:09;19.20;;;16.20;;
51525;SDS011;37611;51.794;21.590;2024-03-23T11:06:42;18.00;;;13.60;;
51525;SDS011;37611;51.794;21.590;2024-03-23T11:10:42;17.20;;;13.60;;
51525;SDS011;37611;51.794;21.590;2024-03-23T11:14:45;15.90;;;13.20;;
51525;SDS011;37611;51.794;21.590;2024-03-23T11:18:47;16.70;;;13.00;;
51525;SDS011;37611;51.794;21.590;2024-03-23T11:22:49;15.40;;;13.70;;
51525;SDS011;37611;51.794;21.590;2024-03-23T11:26:54;19.40;;;14.40;;
51525;SDS011;37611;51.794;21.590;2024-03-23T11:30:56;18.80;;;14.10;;
51525;SDS011;37611;51.794;21.590;2024-03-23T11:34:58;14.50;;;12.00;;
51525;SDS011;37611;51.794;21.590;2024-03-23T11:39:10;13.20;;;10.90;;
51525;SDS011;37611;51.794;21.590;2024-03-23T11:43:18;11.80;;;10.50;;
51525;SDS011;37611;51.794;21.590;2024-03-23T11:47:21;13.50;;;11.90;;
51525;SDS011;37611;51.794;21.590;2024-03-23T11:51:23;13.60;;;10.30;;
51525;SDS011;37611;51.794;21.590;2024-03-23T11:55:25;12.90;;;10.00;;
51525;SDS011;37611;51.794;21.590;2024-03-23T11:59:40;13.30;;;9.80;;
51525;SDS011;37611;51.794;21.590;2024-03-23T12:03:43;12.30;;;9.30;;
51525;SDS011;37611;51.794;21.590;2024-03-23T12:07:45;11.60;;;9.50;;
51525;SDS011;37611;51.794;21.590;2024-03-23T12:11:47;8.90;;;7.90;;
51525;SDS011;37611;51.794;21.590;2024-03-23T12:15:50;9.30;;;8.20;;
51525;SDS011;37611;51.794;21.590;2024-03-23T12:19:52;10.10;;;8.60;;
51525;SDS011;37611;51.794;21.590;2024-03-23T12:23:54;14.30;;;9.40;;
51525;SDS011;37611;51.794;21.590;2024-03-23T12:27:58;10.60;;;8.70;;
51525;SDS011;37611;51.794;21.590;2024-03-23T12:32:01;10.40;;;9.00;;
51525;SDS011;37611;51.794;21.590;2024-03-23T12:36:03;12.20;;;8.90;;
51525;SDS011;37611;51.794;21.590;2024-03-23T12:40:06;13.10;;;8.90;;
51525;SDS011;37611;51.794;21.590;2024-03-23T12:44:08;14.60;;;12.10;;
51525;SDS011;37611;51.794;21.590;2024-03-23T12:48:13;11.10;;;8.90;;
51525;SDS011;37611;51.794;21.590;2024-03-23T12:52:14;10.10;;;8.80;;
51525;SDS011;37611;51.794;21.590;2024-03-23T12:56:18;9.80;;;8.80;;
51525;SDS011;37611;51.794;21.590;2024-03-23T13:00:20;9.80;;;8.20;;
51525;SDS011;37611;51.794;21.590;2024-03-23T13:04:22;11.10;;;8.20;;
51525;SDS011;37611;51.794;21.590;2024-03-23T13:08:23;8.60;;;7.50;;
51525;SDS011;37611;51.794;21.590;2024-03-23T13:12:25;11.10;;;9.80;;
51525;SDS011;37611;51.794;21.590;2024-03-23T13:16:27;11.30;;;9.60;;
51525;SDS011;37611;51.794;21.590;2024-03-23T13:20:28;9.40;;;8.40;;
51525;SDS011;37611;51.794;21.590;2024-03-23T13:24:30;8.90;;;7.80;;
51525;SDS011;37611;51.794;21.590;2024-03-23T13:28:32;8.70;;;7.60;;
51525;SDS011;37611;51.794;21.590;2024-03-23T13:32:34;12.40;;;9.10;;
51525;SDS011;37611;51.794;21.590;2024-03-23T13:36:36;12.30;;;9.10;;
51525;SDS011;37611;51.794;21.590;2024-03-23T13:40:39;13.90;;;10.10;;
51525;SDS011;37611;51.794;21.590;2024-03-23T13:44:41;13.40;;;10.80;;
51525;SDS011;37611;51.794;21.590;2024-03-23T13:48:42;18.00;;;12.70;;
51525;SDS011;37611;51.794;21.590;2024-03-23T13:52:44;15.90;;;12.20;;
51525;SDS011;37611;51.794;21.590;2024-03-23T13:56:47;10.50;;;9.30;;
51525;SDS011;37611;51.794;21.590;2024-03-23T14:00:50;10.50;;;9.10;;
51525;SDS011;37611;51.794;21.590;2024-03-23T14:04:51;10.80;;;9.60;;
51525;SDS011;37611;51.794;21.590;2024-03-23T14:08:54;12.10;;;9.50;;
51525;SDS011;37611;51.794;21.590;2024-03-23T14:12:55;12.00;;;9.70;;
51525;SDS011;37611;51.794;21.590;2024-03-23T14:16:57;9.90;;;8.90;;
51525;SDS011;37611;51.794;21.590;2024-03-23T14:20:59;12.40;;;9.30;;
51525;SDS011;37611;51.794;21.590;2024-03-23T14:25:02;14.40;;;12.90;;
51525;SDS011;37611;51.794;21.590;2024-03-23T14:29:05;11.40;;;9.40;;
51525;SDS011;37611;51.794;21.590;2024-03-23T14:33:06;14.50;;;10.60;;
51525;SDS011;37611;51.794;21.590;2024-03-23T14:37:08;16.50;;;10.80;;
51525;SDS011;37611;51.794;21.590;2024-03-23T14:41:10;12.10;;;10.90;;
51525;SDS011;37611;51.794;21.590;2024-03-23T14:45:12;12.60;;;10.50;;
51525;SDS011;37611;51.794;21.590;2024-03-23T14:49:14;15.20;;;10.40;;
51525;SDS011;37611;51.794;21.590;2024-03-23T14:53:19;15.70;;;12.90;;
51525;SDS011;37611;51.794;21.590;2024-03-23T14:57:21;14.70;;;12.00;;
51525;SDS011;37611;51.794;21.590;2024-03-23T15:01:22;15.60;;;13.30;;
51525;SDS011;37611;51.794;21.590;2024-03-23T15:05:24;25.70;;;16.70;;
51525;SDS011;37611;51.794;21.590;2024-03-23T15:09:26;36.20;;;28.10;;
51525;SDS011;37611;51.794;21.590;2024-03-23T15:13:27;22.90;;;20.40;;
51525;SDS011;37611;51.794;21.590;2024-03-23T15:17:29;44.20;;;31.50;;
51525;SDS011;37611;51.794;21.590;2024-03-23T15:21:35;40.00;;;35.70;;
51525;SDS011;37611;51.794;21.590;2024-03-23T15:25:37;21.70;;;18.00;;
51525;SDS011;37611;51.794;21.590;2024-03-23T15:29:38;26.60;;;22.50;;
51525;SDS011;37611;51.794;21.590;2024-03-23T15:33:41;87.70;;;78.10;;
51525;SDS011;37611;51.794;21.590;2024-03-23T15:37:42;25.00;;;20.70;;
51525;SDS011;37611;51.794;21.590;2024-03-23T15:41:45;20.00;;;15.90;;
51525;SDS011;37611;51.794;21.590;2024-03-23T15:45:56;15.30;;;13.70;;
51525;SDS011;37611;51.794;21.590;2024-03-23T15:50:02;16.50;;;14.00;;
51525;SDS011;37611;51.794;21.590;2024-03-23T15:54:09;17.50;;;15.50;;
51525;SDS011;37611;51.794;21.590;2024-03-23T15:58:11;22.90;;;16.50;;
51525;SDS011;37611;51.794;21.590;2024-03-23T16:02:13;20.30;;;17.10;;
51525;SDS011;37611;51.794;21.590;2024-03-23T16:06:16;12.30;;;6.70;;
51525;SDS011;37611;51.794;21.590;2024-03-23T16:10:18;7.30;;;3.60;;
51525;SDS011;37611;51.794;21.590;2024-03-23T16:14:20;3.40;;;2.20;;
51525;SDS011;37611;51.794;21.590;2024-03-23T16:18:22;4.00;;;2.70;;
51525;SDS011;37611;51.794;21.590;2024-03-23T16:22:24;3.30;;;1.90;;
51525;SDS011;37611;51.794;21.590;2024-03-23T16:26:25;3.70;;;2.90;;
51525;SDS011;37611;51.794;21.590;2024-03-23T16:30:27;7.60;;;5.80;;
51525;SDS011;37611;51.794;21.590;2024-03-23T16:34:29;9.60;;;7.20;;
51525;SDS011;37611;51.794;21.590;2024-03-23T16:38:30;13.30;;;6.60;;
51525;SDS011;37611;51.794;21.590;2024-03-23T16:42:36;49.00;;;43.80;;
51525;SDS011;37611;51.794;21.590;2024-03-23T16:46:37;62.30;;;55.80;;
51525;SDS011;37611;51.794;21.590;2024-03-23T16:50:39;25.60;;;23.00;;
51525;SDS011;37611;51.794;21.590;2024-03-23T16:54:41;26.20;;;23.20;;
51525;SDS011;37611;51.794;21.590;2024-03-23T16:58:43;54.60;;;48.80;;
51525;SDS011;37611;51.794;21.590;2024-03-23T17:02:47;62.00;;;55.00;;
51525;SDS011;37611;51.794;21.590;2024-03-23T17:06:49;51.60;;;43.40;;
51525;SDS011;37611;51.794;21.590;2024-03-23T17:10:56;74.80;;;62.00;;
51525;SDS011;37611;51.794;21.590;2024-03-23T17:15:03;121.70;;;106.40;;
51525;SDS011;37611;51.794;21.590;2024-03-23T17:19:07;82.90;;;73.90;;
51525;SDS011;37611;51.794;21.590;2024-03-23T17:23:10;93.70;;;83.60;;
51525;SDS011;37611;51.794;21.590;2024-03-23T17:27:12;51.00;;;42.30;;
51525;SDS011;37611;51.794;21.590;2024-03-23T17:31:15;48.40;;;39.60;;
51525;SDS011;37611;51.794;21.590;2024-03-23T17:35:18;59.30;;;44.70;;
51525;SDS011;37611;51.794;21.590;2024-03-23T17:39:23;65.10;;;50.60;;
51525;SDS011;37611;51.794;21.590;2024-03-23T17:43:24;50.90;;;41.30;;
51525;SDS011;37611;51.794;21.590;2024-03-23T17:47:26;28.10;;;21.20;;
51525;SDS011;37611;51.794;21.590;2024-03-23T17:51:28;46.20;;;39.70;;
51525;SDS011;37611;51.794;21.590;2024-03-23T17:55:31;22.70;;;17.70;;
51525;SDS011;37611;51.794;21.590;2024-03-23T17:59:33;21.80;;;14.40;;
51525;SDS011;37611;51.794;21.590;2024-03-23T18:03:35;22.10;;;13.20;;
51525;SDS011;37611;51.794;21.590;2024-03-23T18:07:37;13.00;;;9.50;;
51525;SDS011;37611;51.794;21.590;2024-03-23T18:11:38;12.00;;;8.70;;
51525;SDS011;37611;51.794;21.590;2024-03-23T18:15:42;15.10;;;10.40;;
51525;SDS011;37611;51.794;21.590;2024-03-23T18:19:44;19.10;;;16.20;;
51525;SDS011;37611;51.794;21.590;2024-03-23T18:23:46;17.80;;;12.80;;
51525;SDS011;37611;51.794;21.590;2024-03-23T18:27:48;10.70;;;8.90;;
51525;SDS011;37611;51.794;21.590;2024-03-23T18:31:50;17.80;;;16.10;;
51525;SDS011;37611;51.794;21.590;2024-03-23T18:35:52;8.90;;;6.90;;
51525;SDS011;37611;51.794;21.590;2024-03-23T18:39:57;8.00;;;6.60;;
51525;SDS011;37611;51.794;21.590;2024-03-23T18:43:58;7.60;;;5.50;;
51525;SDS011;37611;51.794;21.590;2024-03-23T18:48:01;9.20;;;6.30;;
51525;SDS011;37611;51.794;21.590;2024-03-23T18:52:04;11.20;;;7.70;;
51525;SDS011;37611;51.794;21.590;2024-03-23T18:56:05;16.90;;;9.20;;
51525;SDS011;37611;51.794;21.590;2024-03-23T19:00:08;29.10;;;21.20;;
51525;SDS011;37611;51.794;21.590;2024-03-23T19:04:10;15.80;;;12.00;;
51525;SDS011;37611;51.794;21.590;2024-03-23T19:08:12;10.10;;;8.10;;
51525;SDS011;37611;51.794;21.590;2024-03-23T19:12:13;12.00;;;9.30;;
51525;SDS011;37611;51.794;21.590;2024-03-23T19:16:18;13.70;;;8.60;;
51525;SDS011;37611;51.794;21.590;2024-03-23T19:20:19;10.10;;;7.70;;
51525;SDS011;37611;51.794;21.590;2024-03-23T19:24:22;19.30;;;15.70;;
51525;SDS011;37611;51.794;21.590;2024-03-23T19:28:24;13.40;;;12.10;;
51525;SDS011;37611;51.794;21.590;2024-03-23T19:32:27;12.10;;;10.10;;
51525;SDS011;37611;51.794;21.590;2024-03-23T19:36:30;9.70;;;7.90;;
51525;SDS011;37611;51.794;21.590;2024-03-23T19:40:32;7.50;;;6.70;;
51525;SDS011;37611;51.794;21.590;2024-03-23T19:44:34;9.00;;;5.60;;
51525;SDS011;37611;51.794;21.590;2024-03-23T19:48:36;5.50;;;5.00;;
51525;SDS011;37611;51.794;21.590;2024-03-23T19:52:38;6.00;;;5.20;;
51525;SDS011;37611;51.794;21.590;2024-03-23T19:56:39;4.90;;;4.40;;
51525;SDS011;37611;51.794;21.590;2024-03-23T20:00:41;12.80;;;10.50;;
51525;SDS011;37611;51.794;21.590;2024-03-23T20:04:44;7.20;;;6.40;;
51525;SDS011;37611;51.794;21.590;2024-03-23T20:08:46;11.50;;;10.40;;
51525;SDS011;37611;51.794;21.590;2024-03-23T20:12:51;4.20;;;3.10;;
51525;SDS011;37611;51.794;21.590;2024-03-23T20:16:53;4.10;;;3.40;;
51525;SDS011;37611;51.794;21.590;2024-03-23T20:21:02;3.00;;;2.30;;
51525;SDS011;37611;51.794;21.590;2024-03-23T20:25:05;3.00;;;2.10;;
51525;SDS011;37611;51.794;21.590;2024-03-23T20:29:10;4.30;;;3.20;;
51525;SDS011;37611;51.794;21.590;2024-03-23T20:33:12;2.80;;;2.00;;
51525;SDS011;37611;51.794;21.590;2024-03-23T20:37:13;12.10;;;8.60;;
51525;SDS011;37611;51.794;21.590;2024-03-23T20:41:16;15.50;;;10.00;;
51525;SDS011;37611;51.794;21.590;2024-03-23T20:45:20;8.90;;;8.20;;
51525;SDS011;37611;51.794;21.590;2024-03-23T20:49:22;10.40;;;9.40;;
51525;SDS011;37611;51.794;21.590;2024-03-23T20:53:23;7.60;;;6.90;;
51525;SDS011;37611;51.794;21.590;2024-03-23T20:57:25;25.40;;;19.20;;
51525;SDS011;37611;51.794;21.590;2024-03-23T21:01:27;13.80;;;11.50;;
51525;SDS011;37611;51.794;21.590;2024-03-23T21:05:33;11.10;;;9.90;;
51525;SDS011;37611;51.794;21.590;2024-03-23T21:09:35;6.30;;;5.70;;
51525;SDS011;37611;51.794;21.590;2024-03-23T21:13:37;14.40;;;12.00;;
51525;SDS011;37611;51.794;21.590;2024-03-23T21:17:38;14.90;;;13.40;;
51525;SDS011;37611;51.794;21.590;2024-03-23T21:21:40;8.90;;;8.10;;
51525;SDS011;37611;51.794;21.590;2024-03-23T21:25:43;7.00;;;6.20;;
51525;SDS011;37611;51.794;21.590;2024-03-23T21:29:50;8.70;;;7.80;;
51525;SDS011;37611;51.794;21.590;2024-03-23T21:33:52;4.40;;;4.00;;
51525;SDS011;37611;51.794;21.590;2024-03-23T21:37:54;10.10;;;8.30;;
51525;SDS011;37611;51.794;21.590;2024-03-23T21:41:56;9.40;;;8.50;;
51525;SDS011;37611;51.794;21.590;2024-03-23T21:45:59;7.30;;;6.30;;
51525;SDS011;37611;51.794;21.590;2024-03-23T21:50:05;7.40;;;6.60;;
51525;SDS011;37611;51.794;21.590;2024-03-23T21:54:07;4.90;;;4.30;;
51525;SDS011;37611;51.794;21.590;2024-03-23T21:58:09;9.30;;;5.40;;
51525;SDS011;37611;51.794;21.590;2024-03-23T22:02:11;17.00;;;15.40;;
51525;SDS011;37611;51.794;21.590;2024-03-23T22:06:12;6.00;;;4.70;;
51525;SDS011;37611;51.794;21.590;2024-03-23T22:10:14;10.00;;;9.10;;
51525;SDS011;37611;51.794;21.590;2024-03-23T22:14:16;5.60;;;4.80;;
51525;SDS011;37611;51.794;21.590;2024-03-23T22:18:18;6.50;;;4.50;;
51525;SDS011;37611;51.794;21.590;2024-03-23T22:22:20;7.10;;;5.00;;
51525;SDS011;37611;51.794;21.590;2024-03-23T22:26:22;5.40;;;3.80;;
51525;SDS011;37611;51.794;21.590;2024-03-23T22:30:23;4.50;;;3.80;;
51525;SDS011;37611;51.794;21.590;2024-03-23T22:34:25;6.20;;;3.70;;
51525;SDS011;37611;51.794;21.590;2024-03-23T22:38:27;6.80;;;3.70;;
51525;SDS011;37611;51.794;21.590;2024-03-23T22:42:30;6.70;;;3.70;;
51525;SDS011;37611;51.794;21.590;2024-03-23T22:46:32;4.40;;;3.10;;
51525;SDS011;37611;51.794;21.590;2024-03-23T22:50:33;10.60;;;6.30;;
51525;SDS011;37611;51.794;21.590;2024-03-23T22:54:35;9.50;;;7.40;;
51525;SDS011;37611;51.794;21.590;2024-03-23T22:58:37;9.60;;;6.10;;
51525;SDS011;37611;51.794;21.590;2024-03-23T23:02:38;5.80;;;4.70;;
51525;SDS011;37611;51.794;21.590;2024-03-23T23:06:40;10.80;;;7.20;;
51525;SDS011;37611;51.794;21.590;2024-03-23T23:10:45;17.80;;;10.70;;
51525;SDS011;37611;51.794;21.590;2024-03-23T23:14:48;8.40;;;4.70;;
51525;SDS011;37611;51.794;21.590;2024-03-23T23:18:50;9.10;;;5.90;;
51525;SDS011;37611;51.794;21.590;2024-03-23T23:22:52;9.20;;;7.60;;
51525;SDS011;37611;51.794;21.590;2024-03-23T23:26:53;13.10;;;11.50;;
51525;SDS011;37611;51.794;21.590;2024-03-23T23:30:56;8.30;;;6.90;;
51525;SDS011;37611;51.794;21.590;2024-03-23T23:34:58;9.70;;;8.40;;
51525;SDS011;37611;51.794;21.590;2024-03-23T23:39:03;7.40;;;6.10;;
51525;SDS011;37611;51.794;21.590;2024-03-23T23:43:05;9.70;;;6.00;;
51525;SDS011;37611;51.794;21.590;2024-03-23T23:47:06;10.60;;;6.70;;
51525;SDS011;37611;51.794;21.590;2024-03-23T23:51:08;8.40;;;6.70;;
51525;SDS011;37611;51.794;21.590;2024-03-23T23:55:10;8.50;;;6.00;;
51525;SDS011;37611;51.794;21.590;2024-03-23T23:59:12;10.40;;;6.50;;
